sensor_id;sensor_type;location;lat;lon;timestamp;pressure;altitude;pressure_sealevel;temperature;humidity
51617;BME280;37697;52.588;13.394;2024-01-06T00:04:14;100028.52;;;-0.32;100.00
51617;BME280;37697;52.588;13.394;2024-01-06T00:09:40;100028.73;;;-0.37;100.00
51617;BME280;37697;52.588;13.394;2024-01-06T00:15:07;100034.27;;;-0.40;100.00
51617;BME280;37697;52.588;13.394;2024-01-06T00:20:33;100039.71;;;-0.41;100.00
51617;BME280;37697;52.588;13.394;2024-01-06T00:25:59;100043.20;;;-0.43;100.00
51617;BME280;37697;52.588;13.394;2024-01-06T00:31:24;100043.38;;;-0.45;100.00
51617;BME280;37697;52.588;13.394;2024-01-06T00:36:50;100040.02;;;-0.43;100.00
51617;BME280;37697;52.588;13.394;2024-01-06T00:42:16;100043.52;;;-0.40;100.00
51617;BME280;37697;52.588;13.394;2024-01-06T00:47:42;100048.66;;;-0.41;100.00
51617;BME280;37697;52.588;13.394;2024-01-06T00:53:07;100050.27;;;-0.44;100.00
51617;BME280;37697;52.588;13.394;2024-01-06T00:58:33;100056.38;;;-0.48;100.00
51617;BME280;37697;52.588;13.394;2024-01-06T01:03:51;100051.71;;;-0.48;100.00
51617;BME280;37697;52.588;13.394;2024-01-06T01:09:17;100054.06;;;-0.51;100.00
51617;BME280;37697;52.588;13.394;2024-01-06T01:14:43;100066.84;;;-0.51;100.00
51617;BME280;37697;52.588;13.394;2024-01-06T01:20:10;100080.27;;;-0.50;100.00
51617;BME280;37697;52.588;13.394;2024-01-06T01:25:29;100084.75;;;-0.50;100.00
51617;BME280;37697;52.588;13.394;2024-01-06T01:30:55;100088.57;;;-0.49;100.00
51617;BME280;37697;52.588;13.394;2024-01-06T01:36:21;100090.41;;;-0.46;100.00
51617;BME280;37697;52.588;13.394;2024-01-06T01:41:46;100083.88;;;-0.47;100.00
51617;BME280;37697;52.588;13.394;2024-01-06T01:47:12;100086.60;;;-0.50;100.00
51617;BME280;37697;52.588;13.394;2024-01-06T01:52:38;100087.27;;;-0.51;100.00
51617;BME280;37697;52.588;13.394;2024-01-06T01:58:06;100093.50;;;-0.51;100.00
51617;BME280;37697;52.588;13.394;2024-01-06T02:03:32;100095.16;;;-0.52;100.00
51617;BME280;37697;52.588;13.394;2024-01-06T02:08:58;100096.87;;;-0.53;100.00
51617;BME280;37697;52.588;13.394;2024-01-06T02:14:23;100100.08;;;-0.55;100.00
51617;BME280;37697;52.588;13.394;2024-01-06T02:19:49;100105.75;;;-0.56;100.00
51617;BME280;37697;52.588;13.394;2024-01-06T02:25:09;100102.33;;;-0.56;100.00
51617;BME280;37697;52.588;13.394;2024-01-06T02:30:35;100099.91;;;-0.55;100.00
51617;BME280;37697;52.588;13.394;2024-01-06T02:36:00;100102.52;;;-0.55;100.00
51617;BME280;37697;52.588;13.394;2024-01-06T02:41:26;100105.16;;;-0.52;100.00
51617;BME280;37697;52.588;13.394;2024-01-06T02:46:52;100118.09;;;-0.50;100.00
51617;BME280;37697;52.588;13.394;2024-01-06T02:52:17;100130.83;;;-0.51;100.00
51617;BME280;37697;52.588;13.394;2024-01-06T02:57:43;100132.20;;;-0.53;100.00
51617;BME280;37697;52.588;13.394;2024-01-06T03:03:09;100132.33;;;-0.53;100.00
51617;BME280;37697;52.588;13.394;2024-01-06T03:08:35;100137.97;;;-0.51;100.00
51617;BME280;37697;52.588;13.394;2024-01-06T03:14:00;100139.08;;;-0.50;100.00
51617;BME280;37697;52.588;13.394;2024-01-06T03:19:26;100139.70;;;-0.48;100.00
51617;BME280;37697;52.588;13.394;2024-01-06T03:24:50;100144.38;;;-0.47;100.00
51617;BME280;37697;52.588;13.394;2024-01-06T03:30:16;100145.42;;;-0.46;100.00
51617;BME280;37697;52.588;13.394;2024-01-06T03:35:42;100147.59;;;-0.46;100.00
51617;BME280;37697;52.588;13.394;2024-01-06T03:41:00;100153.67;;;-0.44;100.00
51617;BME280;37697;52.588;13.394;2024-01-06T03:46:26;100161.46;;;-0.45;100.00
51617;BME280;37697;52.588;13.394;2024-01-06T03:51:51;100160.87;;;-0.48;100.00
51617;BME280;37697;52.588;13.394;2024-01-06T03:57:17;100164.23;;;-0.47;100.00
51617;BME280;37697;52.588;13.394;2024-01-06T04:02:43;100164.65;;;-0.48;100.00
51617;BME280;37697;52.588;13.394;2024-01-06T04:08:09;100171.55;;;-0.50;100.00
51617;BME280;37697;52.588;13.394;2024-01-06T04:13:34;100182.38;;;-0.52;100.00
51617;BME280;37697;52.588;13.394;2024-01-06T04:19:00;100182.77;;;-0.54;100.00
51617;BME280;37697;52.588;13.394;2024-01-06T04:24:26;100188.21;;;-0.55;100.00
51617;BME280;37697;52.588;13.394;2024-01-06T04:29:44;100195.13;;;-0.56;100.00
51617;BME280;37697;52.588;13.394;2024-01-06T04:35:12;100207.06;;;-0.54;100.00
51617;BME280;37697;52.588;13.394;2024-01-06T04:40:37;100211.57;;;-0.53;100.00
51617;BME280;37697;52.588;13.394;2024-01-06T04:46:03;100211.73;;;-0.53;100.00
51617;BME280;37697;52.588;13.394;2024-01-06T04:51:29;100215.98;;;-0.55;100.00
51617;BME280;37697;52.588;13.394;2024-01-06T04:56:55;100222.83;;;-0.59;100.00
51617;BME280;37697;52.588;13.394;2024-01-06T05:02:21;100226.21;;;-0.57;100.00
51617;BME280;37697;52.588;13.394;2024-01-06T05:07:47;100233.27;;;-0.56;100.00
51617;BME280;37697;52.588;13.394;2024-01-06T05:13:13;100238.20;;;-0.59;100.00
51617;BME280;37697;52.588;13.394;2024-01-06T05:18:38;100237.64;;;-0.62;100.00
51617;BME280;37697;52.588;13.394;2024-01-06T05:24:05;100241.88;;;-0.64;100.00
51617;BME280;37697;52.588;13.394;2024-01-06T05:29:31;100249.70;;;-0.66;100.00
51617;BME280;37697;52.588;13.394;2024-01-06T05:34:57;100258.35;;;-0.69;100.00
51617;BME280;37697;52.588;13.394;2024-01-06T05:40:21;100254.48;;;-0.73;100.00
51617;BME280;37697;52.588;13.394;2024-01-06T05:45:47;100258.21;;;-0.73;100.00
51617;BME280;37697;52.588;13.394;2024-01-06T05:51:06;100270.35;;;-0.74;100.00
51617;BME280;37697;52.588;13.394;2024-01-06T05:56:32;100275.22;;;-0.78;100.00
51617;BME280;37697;52.588;13.394;2024-01-06T06:01:57;100281.73;;;-0.79;100.00
51617;BME280;37697;52.588;13.394;2024-01-06T06:07:23;100287.97;;;-0.81;100.00
51617;BME280;37697;52.588;13.394;2024-01-06T06:12:49;100297.42;;;-0.86;100.00
51617;BME280;37697;52.588;13.394;2024-01-06T06:18:14;100300.57;;;-0.88;100.00
51617;BME280;37697;52.588;13.394;2024-01-06T06:23:40;100313.52;;;-0.91;100.00
51617;BME280;37697;52.588;13.394;2024-01-06T06:29:06;100330.98;;;-0.94;100.00
51617;BME280;37697;52.588;13.394;2024-01-06T06:34:32;100343.78;;;-0.98;100.00
51617;BME280;37697;52.588;13.394;2024-01-06T06:39:58;100345.54;;;-0.99;100.00
51617;BME280;37697;52.588;13.394;2024-01-06T06:45:23;100351.67;;;-1.00;100.00
51617;BME280;37697;52.588;13.394;2024-01-06T06:50:49;100354.34;;;-1.02;100.00
51617;BME280;37697;52.588;13.394;2024-01-06T06:56:15;100364.80;;;-1.03;100.00
51617;BME280;37697;52.588;13.394;2024-01-06T07:01:41;100383.86;;;-1.04;100.00
51617;BME280;37697;52.588;13.394;2024-01-06T07:07:07;100399.84;;;-1.05;100.00
51617;BME280;37697;52.588;13.394;2024-01-06T07:12:33;100400.17;;;-1.07;100.00
51617;BME280;37697;52.588;13.394;2024-01-06T07:17:59;100410.11;;;-1.10;100.00
51617;BME280;37697;52.588;13.394;2024-01-06T07:23:24;100420.27;;;-1.08;100.00
51617;BME280;37697;52.588;13.394;2024-01-06T07:28:49;100427.46;;;-1.05;100.00
51617;BME280;37697;52.588;13.394;2024-01-06T07:34:15;100428.75;;;-1.08;100.00
51617;BME280;37697;52.588;13.394;2024-01-06T07:39:41;100437.98;;;-1.08;100.00
51617;BME280;37697;52.588;13.394;2024-01-06T07:45:08;100445.02;;;-1.15;100.00
51617;BME280;37697;52.588;13.394;2024-01-06T07:50:34;100449.55;;;-1.20;100.00
51617;BME280;37697;52.588;13.394;2024-01-06T07:56:00;100453.46;;;-1.21;100.00
51617;BME280;37697;52.588;13.394;2024-01-06T08:01:25;100465.61;;;-1.24;100.00
51617;BME280;37697;52.588;13.394;2024-01-06T08:06:51;100473.97;;;-1.25;100.00
51617;BME280;37697;52.588;13.394;2024-01-06T08:12:17;100478.79;;;-1.28;100.00
51617;BME280;37697;52.588;13.394;2024-01-06T08:17:43;100497.67;;;-1.31;100.00
51617;BME280;37697;52.588;13.394;2024-01-06T08:23:09;100511.85;;;-1.31;100.00
51617;BME280;37697;52.588;13.394;2024-01-06T08:28:25;100509.77;;;-1.29;100.00
51617;BME280;37697;52.588;13.394;2024-01-06T08:33:51;100522.27;;;-1.29;100.00
51617;BME280;37697;52.588;13.394;2024-01-06T08:39:17;100522.38;;;-1.35;100.00
51617;BME280;37697;52.588;13.394;2024-01-06T08:44:42;100530.41;;;-1.36;100.00
51617;BME280;37697;52.588;13.394;2024-01-06T08:50:09;100549.27;;;-1.34;100.00
51617;BME280;37697;52.588;13.394;2024-01-06T08:55:35;100554.29;;;-1.37;100.00
51617;BME280;37697;52.588;13.394;2024-01-06T09:01:01;100557.80;;;-1.42;100.00
51617;BME280;37697;52.588;13.394;2024-01-06T09:06:26;100568.39;;;-1.44;100.00
51617;BME280;37697;52.588;13.394;2024-01-06T09:11:53;100582.10;;;-1.47;100.00
51617;BME280;37697;52.588;13.394;2024-01-06T09:17:18;100589.40;;;-1.46;100.00
51617;BME280;37697;52.588;13.394;2024-01-06T09:22:44;100594.87;;;-1.48;100.00
51617;BME280;37697;52.588;13.394;2024-01-06T09:28:10;100597.16;;;-1.49;100.00
51617;BME280;37697;52.588;13.394;2024-01-06T09:33:36;100603.39;;;-1.45;100.00
51617;BME280;37697;52.588;13.394;2024-01-06T09:39:01;100617.78;;;-1.42;100.00
51617;BME280;37697;52.588;13.394;2024-01-06T09:44:27;100618.41;;;-1.39;100.00
51617;BME280;37697;52.588;13.394;2024-01-06T09:49:54;100625.37;;;-1.34;100.00
51617;BME280;37697;52.588;13.394;2024-01-06T09:55:24;100626.21;;;-1.32;100.00
51617;BME280;37697;52.588;13.394;2024-01-06T10:00:53;100631.31;;;-1.22;100.00
51617;BME280;37697;52.588;13.394;2024-01-06T10:06:20;100643.57;;;-1.23;100.00
51617;BME280;37697;52.588;13.394;2024-01-06T10:11:46;100649.20;;;-1.24;100.00
51617;BME280;37697;52.588;13.394;2024-01-06T10:17:11;100652.80;;;-1.19;100.00
51617;BME280;37697;52.588;13.394;2024-01-06T10:22:38;100660.95;;;-1.23;100.00
51617;BME280;37697;52.588;13.394;2024-01-06T10:28:05;100662.91;;;-1.27;100.00
51617;BME280;37697;52.588;13.394;2024-01-06T10:33:33;100664.23;;;-1.30;100.00
51617;BME280;37697;52.588;13.394;2024-01-06T10:38:59;100653.38;;;-1.37;100.00
51617;BME280;37697;52.588;13.394;2024-01-06T10:44:26;100655.44;;;-1.35;100.00
51617;BME280;37697;52.588;13.394;2024-01-06T10:49:54;100669.87;;;-1.39;100.00
51617;BME280;37697;52.588;13.394;2024-01-06T10:55:20;100660.61;;;-1.43;100.00
51617;BME280;37697;52.588;13.394;2024-01-06T11:00:47;100659.58;;;-1.40;100.00
51617;BME280;37697;52.588;13.394;2024-01-06T11:06:13;100660.98;;;-1.37;100.00
51617;BME280;37697;52.588;13.394;2024-01-06T11:11:41;100664.38;;;-1.38;100.00
51617;BME280;37697;52.588;13.394;2024-01-06T11:17:07;100665.74;;;-1.38;100.00
51617;BME280;37697;52.588;13.394;2024-01-06T11:22:27;100664.59;;;-1.36;100.00
51617;BME280;37697;52.588;13.394;2024-01-06T11:27:54;100666.80;;;-1.36;100.00
51617;BME280;37697;52.588;13.394;2024-01-06T11:33:19;100670.10;;;-1.42;100.00
51617;BME280;37697;52.588;13.394;2024-01-06T11:38:45;100677.46;;;-1.43;100.00
51617;BME280;37697;52.588;13.394;2024-01-06T11:44:11;100679.66;;;-1.40;100.00
51617;BME280;37697;52.588;13.394;2024-01-06T11:49:37;100679.19;;;-1.43;100.00
51617;BME280;37697;52.588;13.394;2024-01-06T11:55:04;100674.20;;;-1.44;100.00
51617;BME280;37697;52.588;13.394;2024-01-06T12:00:30;100664.41;;;-1.42;100.00
51617;BME280;37697;52.588;13.394;2024-01-06T12:06:03;100672.00;;;-1.43;100.00
51617;BME280;37697;52.588;13.394;2024-01-06T12:11:29;100673.84;;;-1.41;100.00
51617;BME280;37697;52.588;13.394;2024-01-06T12:16:44;100661.45;;;-1.37;100.00
51617;BME280;37697;52.588;13.394;2024-01-06T12:22:03;100675.79;;;-1.37;100.00
51617;BME280;37697;52.588;13.394;2024-01-06T12:27:24;100685.95;;;-1.39;100.00
51617;BME280;37697;52.588;13.394;2024-01-06T12:32:51;100693.58;;;-1.41;100.00
51617;BME280;37697;52.588;13.394;2024-01-06T12:38:22;100693.83;;;-1.41;100.00
51617;BME280;37697;52.588;13.394;2024-01-06T12:43:47;100698.95;;;-1.40;100.00
51617;BME280;37697;52.588;13.394;2024-01-06T12:48:59;100697.98;;;-1.45;100.00
51617;BME280;37697;52.588;13.394;2024-01-06T12:54:24;100711.66;;;-1.48;100.00
51617;BME280;37697;52.588;13.394;2024-01-06T12:59:52;100714.25;;;-1.50;100.00
51617;BME280;37697;52.588;13.394;2024-01-06T13:05:18;100719.05;;;-1.49;100.00
51617;BME280;37697;52.588;13.394;2024-01-06T13:10:52;100723.50;;;-1.47;100.00
51617;BME280;37697;52.588;13.394;2024-01-06T13:16:18;100730.77;;;-1.47;100.00
51617;BME280;37697;52.588;13.394;2024-01-06T13:21:36;100734.51;;;-1.51;100.00
51617;BME280;37697;52.588;13.394;2024-01-06T13:27:02;100743.58;;;-1.51;100.00
51617;BME280;37697;52.588;13.394;2024-01-06T13:32:27;100750.77;;;-1.51;100.00
51617;BME280;37697;52.588;13.394;2024-01-06T13:37:53;100764.00;;;-1.49;100.00
51617;BME280;37697;52.588;13.394;2024-01-06T13:43:19;100776.15;;;-1.51;100.00
51617;BME280;37697;52.588;13.394;2024-01-06T13:48:45;100783.04;;;-1.50;100.00
51617;BME280;37697;52.588;13.394;2024-01-06T13:54:11;100784.44;;;-1.45;100.00
51617;BME280;37697;52.588;13.394;2024-01-06T13:59:37;100785.38;;;-1.47;100.00
51617;BME280;37697;52.588;13.394;2024-01-06T14:05:03;100787.52;;;-1.50;100.00
51617;BME280;37697;52.588;13.394;2024-01-06T14:10:29;100792.61;;;-1.53;100.00
51617;BME280;37697;52.588;13.394;2024-01-06T14:15:54;100795.98;;;-1.53;100.00
51617;BME280;37697;52.588;13.394;2024-01-06T14:21:13;100800.90;;;-1.54;100.00
51617;BME280;37697;52.588;13.394;2024-01-06T14:26:39;100810.91;;;-1.54;100.00
51617;BME280;37697;52.588;13.394;2024-01-06T14:32:06;100820.30;;;-1.56;100.00
51617;BME280;37697;52.588;13.394;2024-01-06T14:37:32;100829.40;;;-1.59;100.00
51617;BME280;37697;52.588;13.394;2024-01-06T14:42:57;100836.66;;;-1.58;100.00
51617;BME280;37697;52.588;13.394;2024-01-06T14:48:23;100840.38;;;-1.55;100.00
51617;BME280;37697;52.588;13.394;2024-01-06T14:53:49;100846.68;;;-1.57;100.00
51617;BME280;37697;52.588;13.394;2024-01-06T14:59:17;100855.17;;;-1.59;100.00
51617;BME280;37697;52.588;13.394;2024-01-06T15:04:43;100860.81;;;-1.58;100.00
51617;BME280;37697;52.588;13.394;2024-01-06T15:10:09;100865.40;;;-1.60;100.00
51617;BME280;37697;52.588;13.394;2024-01-06T15:15:35;100874.27;;;-1.63;100.00
51617;BME280;37697;52.588;13.394;2024-01-06T15:21:02;100880.91;;;-1.61;100.00
51617;BME280;37697;52.588;13.394;2024-01-06T15:26:28;100877.38;;;-1.61;100.00
51617;BME280;37697;52.588;13.394;2024-01-06T15:31:53;100890.14;;;-1.61;100.00
51617;BME280;37697;52.588;13.394;2024-01-06T15:37:19;100892.42;;;-1.62;100.00
51617;BME280;37697;52.588;13.394;2024-01-06T15:42:45;100901.38;;;-1.64;100.00
51617;BME280;37697;52.588;13.394;2024-01-06T15:48:10;100908.43;;;-1.63;100.00
51617;BME280;37697;52.588;13.394;2024-01-06T15:53:36;100916.19;;;-1.67;100.00
51617;BME280;37697;52.588;13.394;2024-01-06T15:59:02;100923.57;;;-1.71;100.00
51617;BME280;37697;52.588;13.394;2024-01-06T16:04:26;100925.98;;;-1.70;100.00
51617;BME280;37697;52.588;13.394;2024-01-06T16:09:52;100918.71;;;-1.73;100.00
51617;BME280;37697;52.588;13.394;2024-01-06T16:15:18;100928.02;;;-1.74;100.00
51617;BME280;37697;52.588;13.394;2024-01-06T16:20:36;100935.42;;;-1.75;100.00
51617;BME280;37697;52.588;13.394;2024-01-06T16:26:02;100939.12;;;-1.74;100.00
51617;BME280;37697;52.588;13.394;2024-01-06T16:31:27;100939.40;;;-1.74;100.00
51617;BME280;37697;52.588;13.394;2024-01-06T16:36:53;100946.23;;;-1.76;100.00
51617;BME280;37697;52.588;13.394;2024-01-06T16:42:19;100954.06;;;-1.78;100.00
51617;BME280;37697;52.588;13.394;2024-01-06T16:47:45;100963.29;;;-1.80;100.00
51617;BME280;37697;52.588;13.394;2024-01-06T16:53:11;100973.55;;;-1.80;100.00
51617;BME280;37697;52.588;13.394;2024-01-06T16:58:37;100981.86;;;-1.80;100.00
51617;BME280;37697;52.588;13.394;2024-01-06T17:04:02;100988.79;;;-1.80;100.00
51617;BME280;37697;52.588;13.394;2024-01-06T17:09:28;100991.86;;;-1.86;100.00
51617;BME280;37697;52.588;13.394;2024-01-06T17:14:54;100994.52;;;-1.88;100.00
51617;BME280;37697;52.588;13.394;2024-01-06T17:20:20;101000.50;;;-1.90;100.00
51617;BME280;37697;52.588;13.394;2024-01-06T17:25:45;101002.43;;;-1.91;100.00
51617;BME280;37697;52.588;13.394;2024-01-06T17:31:11;101005.91;;;-1.90;100.00
51617;BME280;37697;52.588;13.394;2024-01-06T17:36:37;101009.88;;;-1.92;100.00
51617;BME280;37697;52.588;13.394;2024-01-06T17:42:04;101016.98;;;-1.94;100.00
51617;BME280;37697;52.588;13.394;2024-01-06T17:47:29;101026.91;;;-1.97;100.00
51617;BME280;37697;52.588;13.394;2024-01-06T17:52:55;101035.73;;;-2.00;100.00
51617;BME280;37697;52.588;13.394;2024-01-06T17:58:21;101038.65;;;-2.02;100.00
51617;BME280;37697;52.588;13.394;2024-01-06T18:03:47;101034.53;;;-2.01;100.00
51617;BME280;37697;52.588;13.394;2024-01-06T18:09:13;101051.09;;;-2.00;100.00
51617;BME280;37697;52.588;13.394;2024-01-06T18:14:38;101057.20;;;-1.98;100.00
51617;BME280;37697;52.588;13.394;2024-01-06T18:20:05;101057.88;;;-1.95;100.00
51617;BME280;37697;52.588;13.394;2024-01-06T18:25:31;101060.60;;;-1.96;100.00
51617;BME280;37697;52.588;13.394;2024-01-06T18:30:57;101066.20;;;-1.97;100.00
51617;BME280;37697;52.588;13.394;2024-01-06T18:36:23;101073.69;;;-1.99;100.00
51617;BME280;37697;52.588;13.394;2024-01-06T18:41:49;101081.91;;;-1.99;100.00
51617;BME280;37697;52.588;13.394;2024-01-06T18:47:15;101088.67;;;-2.01;100.00
51617;BME280;37697;52.588;13.394;2024-01-06T18:52:40;101092.79;;;-2.01;100.00
51617;BME280;37697;52.588;13.394;2024-01-06T18:58:05;101098.23;;;-2.00;100.00
51617;BME280;37697;52.588;13.394;2024-01-06T19:03:31;101104.17;;;-1.99;100.00
51617;BME280;37697;52.588;13.394;2024-01-06T19:08:57;101106.24;;;-1.98;100.00
51617;BME280;37697;52.588;13.394;2024-01-06T19:14:23;101110.43;;;-1.99;100.00
51617;BME280;37697;52.588;13.394;2024-01-06T19:19:41;101114.14;;;-1.98;100.00
51617;BME280;37697;52.588;13.394;2024-01-06T19:25:09;101122.60;;;-1.98;100.00
51617;BME280;37697;52.588;13.394;2024-01-06T19:30:35;101129.80;;;-1.99;100.00
51617;BME280;37697;52.588;13.394;2024-01-06T19:36:01;101137.55;;;-2.03;100.00
51617;BME280;37697;52.588;13.394;2024-01-06T19:41:26;101140.80;;;-2.07;100.00
51617;BME280;37697;52.588;13.394;2024-01-06T19:46:52;101142.85;;;-2.06;100.00
51617;BME280;37697;52.588;13.394;2024-01-06T19:52:11;101149.41;;;-2.07;100.00
51617;BME280;37697;52.588;13.394;2024-01-06T19:57:37;101154.73;;;-2.05;100.00
51617;BME280;37697;52.588;13.394;2024-01-06T20:03:03;101157.67;;;-2.08;100.00
51617;BME280;37697;52.588;13.394;2024-01-06T20:08:29;101162.82;;;-2.11;100.00
51617;BME280;37697;52.588;13.394;2024-01-06T20:13:55;101168.30;;;-2.11;100.00
51617;BME280;37697;52.588;13.394;2024-01-06T20:19:11;101183.13;;;-2.16;100.00
51617;BME280;37697;52.588;13.394;2024-01-06T20:24:37;101184.75;;;-2.23;100.00
51617;BME280;37697;52.588;13.394;2024-01-06T20:30:03;101185.91;;;-2.34;100.00
51617;BME280;37697;52.588;13.394;2024-01-06T20:35:21;101185.53;;;-2.36;100.00
51617;BME280;37697;52.588;13.394;2024-01-06T20:40:47;101186.45;;;-2.38;100.00
51617;BME280;37697;52.588;13.394;2024-01-06T20:46:18;101184.45;;;-2.40;100.00
51617;BME280;37697;52.588;13.394;2024-01-06T20:51:44;101185.58;;;-2.38;100.00
51617;BME280;37697;52.588;13.394;2024-01-06T20:57:09;101189.65;;;-2.36;100.00
51617;BME280;37697;52.588;13.394;2024-01-06T21:02:35;101194.63;;;-2.35;100.00
51617;BME280;37697;52.588;13.394;2024-01-06T21:08:01;101198.08;;;-2.35;100.00
51617;BME280;37697;52.588;13.394;2024-01-06T21:13:27;101204.27;;;-2.35;100.00
51617;BME280;37697;52.588;13.394;2024-01-06T21:18:53;101209.08;;;-2.35;100.00
51617;BME280;37697;52.588;13.394;2024-01-06T21:24:21;101214.34;;;-2.34;100.00
51617;BME280;37697;52.588;13.394;2024-01-06T21:29:47;101216.34;;;-2.33;99.94
51617;BME280;37697;52.588;13.394;2024-01-06T21:35:06;101222.61;;;-2.32;99.64
51617;BME280;37697;52.588;13.394;2024-01-06T21:40:32;101218.86;;;-2.30;99.91
51617;BME280;37697;52.588;13.394;2024-01-06T21:45:57;101220.98;;;-2.28;99.62
51617;BME280;37697;52.588;13.394;2024-01-06T21:51:23;101228.51;;;-2.31;98.02
51617;BME280;37697;52.588;13.394;2024-01-06T21:56:49;101230.29;;;-2.32;97.10
51617;BME280;37697;52.588;13.394;2024-01-06T22:02:15;101231.45;;;-2.33;98.12
51617;BME280;37697;52.588;13.394;2024-01-06T22:07:41;101238.67;;;-2.34;95.67
51617;BME280;37697;52.588;13.394;2024-01-06T22:13:06;101241.24;;;-2.33;97.33
51617;BME280;37697;52.588;13.394;2024-01-06T22:18:32;101243.73;;;-2.32;96.73
51617;BME280;37697;52.588;13.394;2024-01-06T22:23:58;101251.41;;;-2.30;96.42
51617;BME280;37697;52.588;13.394;2024-01-06T22:29:24;101253.20;;;-2.31;95.27
51617;BME280;37697;52.588;13.394;2024-01-06T22:34:50;101257.60;;;-2.32;95.45
51617;BME280;37697;52.588;13.394;2024-01-06T22:40:16;101263.70;;;-2.30;96.25
51617;BME280;37697;52.588;13.394;2024-01-06T22:45:41;101270.39;;;-2.28;96.42
51617;BME280;37697;52.588;13.394;2024-01-06T22:51:06;101271.98;;;-2.29;95.67
51617;BME280;37697;52.588;13.394;2024-01-06T22:56:32;101280.80;;;-2.31;94.21
51617;BME280;37697;52.588;13.394;2024-01-06T23:01:57;101282.35;;;-2.31;95.25
51617;BME280;37697;52.588;13.394;2024-01-06T23:07:14;101284.08;;;-2.32;93.99
51617;BME280;37697;52.588;13.394;2024-01-06T23:12:40;101285.98;;;-2.34;94.62
51617;BME280;37697;52.588;13.394;2024-01-06T23:18:06;101289.65;;;-2.33;94.30
51617;BME280;37697;52.588;13.394;2024-01-06T23:23:32;101295.78;;;-2.35;94.62
51617;BME280;37697;52.588;13.394;2024-01-06T23:28:58;101305.91;;;-2.34;95.14
51617;BME280;37697;52.588;13.394;2024-01-06T23:34:23;101311.89;;;-2.33;95.23
51617;BME280;37697;52.588;13.394;2024-01-06T23:39:49;101310.65;;;-2.33;94.74
51617;BME280;37697;52.588;13.394;2024-01-06T23:45:08;101317.80;;;-2.34;94.55
51617;BME280;37697;52.588;13.394;2024-01-06T23:50:34;101321.84;;;-2.38;94.38
51617;BME280;37697;52.588;13.394;2024-01-06T23:56:00;101331.16;;;-2.40;94.73
